sensor_id;sensor_type;location;lat;lon;timestamp;pressure;altitude;pressure_sealevel;temperature
68440;BMP180;55421;51.600;5.718;2023-11-19T00:00:58;165243.41;;;11.60
68440;BMP180;55421;51.600;5.718;2023-11-19T00:03:44;165242.20;;;11.60
68440;BMP180;55421;51.600;5.718;2023-11-19T00:06:11;165246.59;;;11.60
68440;BMP180;55421;51.600;5.718;2023-11-19T00:08:37;165252.41;;;11.60
68440;BMP180;55421;51.600;5.718;2023-11-19T00:11:04;165252.41;;;11.60
68440;BMP180;55421;51.600;5.718;2023-11-19T00:13:31;165253.59;;;11.60
68440;BMP180;55421;51.600;5.718;2023-11-19T00:15:57;165257.80;;;11.60
68440;BMP180;55421;51.600;5.718;2023-11-19T00:18:24;165261.20;;;11.64
68440;BMP180;55421;51.600;5.718;2023-11-19T00:20:50;165265.59;;;11.70
68440;BMP180;55421;51.600;5.718;2023-11-19T00:23:16;165271.20;;;11.70
68440;BMP180;55421;51.600;5.718;2023-11-19T00:25:43;165280.80;;;11.70
68440;BMP180;55421;51.600;5.718;2023-11-19T00:28:10;165285.20;;;11.70
68440;BMP180;55421;51.600;5.718;2023-11-19T00:30:37;165288.80;;;11.70
68440;BMP180;55421;51.600;5.718;2023-11-19T00:33:03;165290.41;;;11.70
68440;BMP180;55421;51.600;5.718;2023-11-19T00:35:29;165294.00;;;11.70
68440;BMP180;55421;51.600;5.718;2023-11-19T00:37:58;165299.20;;;11.70
68440;BMP180;55421;51.600;5.718;2023-11-19T00:40:24;165309.59;;;11.80
68440;BMP180;55421;51.600;5.718;2023-11-19T00:42:52;165316.00;;;11.80
68440;BMP180;55421;51.600;5.718;2023-11-19T00:45:19;165325.59;;;11.80
68440;BMP180;55421;51.600;5.718;2023-11-19T00:47:45;165340.00;;;11.80
68440;BMP180;55421;51.600;5.718;2023-11-19T00:50:12;165350.00;;;11.84
68440;BMP180;55421;51.600;5.718;2023-11-19T00:52:39;165350.00;;;11.90
68440;BMP180;55421;51.600;5.718;2023-11-19T00:55:06;165351.20;;;11.90
68440;BMP180;55421;51.600;5.718;2023-11-19T00:57:33;165355.20;;;11.90
68440;BMP180;55421;51.600;5.718;2023-11-19T00:59:59;165364.41;;;11.90
68440;BMP180;55421;51.600;5.718;2023-11-19T01:02:26;165368.00;;;11.90
68440;BMP180;55421;51.600;5.718;2023-11-19T01:04:52;165372.80;;;11.90
68440;BMP180;55421;51.600;5.718;2023-11-19T01:07:19;165393.00;;;11.90
68440;BMP180;55421;51.600;5.718;2023-11-19T01:09:45;165397.80;;;12.00
68440;BMP180;55421;51.600;5.718;2023-11-19T01:12:11;165400.80;;;12.00
68440;BMP180;55421;51.600;5.718;2023-11-19T01:14:38;165412.20;;;12.00
68440;BMP180;55421;51.600;5.718;2023-11-19T01:17:05;165415.41;;;12.00
68440;BMP180;55421;51.600;5.718;2023-11-19T01:19:32;165416.20;;;12.00
68440;BMP180;55421;51.600;5.718;2023-11-19T01:21:58;165422.20;;;12.00
68440;BMP180;55421;51.600;5.718;2023-11-19T01:24:24;165424.59;;;12.00
68440;BMP180;55421;51.600;5.718;2023-11-19T01:26:54;165424.20;;;12.00
68440;BMP180;55421;51.600;5.718;2023-11-19T01:29:21;165419.80;;;12.00
68440;BMP180;55421;51.600;5.718;2023-11-19T01:31:47;165414.20;;;12.00
68440;BMP180;55421;51.600;5.718;2023-11-19T01:34:14;165413.00;;;12.00
68440;BMP180;55421;51.600;5.718;2023-11-19T01:36:40;165417.80;;;12.00
68440;BMP180;55421;51.600;5.718;2023-11-19T01:39:06;165416.20;;;12.00
68440;BMP180;55421;51.600;5.718;2023-11-19T01:41:36;165414.20;;;12.00
68440;BMP180;55421;51.600;5.718;2023-11-19T01:44:08;165408.59;;;12.00
68440;BMP180;55421;51.600;5.718;2023-11-19T01:46:35;165400.80;;;12.00
68440;BMP180;55421;51.600;5.718;2023-11-19T01:49:03;165407.41;;;12.00
68440;BMP180;55421;51.600;5.718;2023-11-19T01:51:31;165411.00;;;12.00
68440;BMP180;55421;51.600;5.718;2023-11-19T01:53:58;165414.20;;;12.00
68440;BMP180;55421;51.600;5.718;2023-11-19T01:56:26;165414.20;;;12.00
68440;BMP180;55421;51.600;5.718;2023-11-19T01:58:55;165406.20;;;12.00
68440;BMP180;55421;51.600;5.718;2023-11-19T02:01:22;165402.59;;;12.00
68440;BMP180;55421;51.600;5.718;2023-11-19T02:03:48;165402.59;;;12.00
68440;BMP180;55421;51.600;5.718;2023-11-19T02:06:15;165401.41;;;12.00
68440;BMP180;55421;51.600;5.718;2023-11-19T02:08:42;165391.20;;;11.94
68440;BMP180;55421;51.600;5.718;2023-11-19T02:11:10;165384.80;;;11.90
68440;BMP180;55421;51.600;5.718;2023-11-19T02:13:39;165371.59;;;11.90
68440;BMP180;55421;51.600;5.718;2023-11-19T02:16:07;165347.59;;;11.84
68440;BMP180;55421;51.600;5.718;2023-11-19T02:18:37;165336.41;;;11.80
68440;BMP180;55421;51.600;5.718;2023-11-19T02:21:03;165329.20;;;11.80
68440;BMP180;55421;51.600;5.718;2023-11-19T02:23:31;165318.41;;;11.80
68440;BMP180;55421;51.600;5.718;2023-11-19T02:26:05;165313.59;;;11.80
68440;BMP180;55421;51.600;5.718;2023-11-19T02:28:36;165314.80;;;11.80
68440;BMP180;55421;51.600;5.718;2023-11-19T02:31:04;165314.80;;;11.80
68440;BMP180;55421;51.600;5.718;2023-11-19T02:33:38;165319.59;;;11.80
68440;BMP180;55421;51.600;5.718;2023-11-19T02:36:06;165320.80;;;11.80
68440;BMP180;55421;51.600;5.718;2023-11-19T02:38:37;165334.00;;;11.80
68440;BMP180;55421;51.600;5.718;2023-11-19T02:41:04;165338.41;;;11.80
68440;BMP180;55421;51.600;5.718;2023-11-19T02:43:37;165342.41;;;11.80
68440;BMP180;55421;51.600;5.718;2023-11-19T02:46:05;165342.00;;;11.82
68440;BMP180;55421;51.600;5.718;2023-11-19T02:48:35;165353.20;;;11.88
68440;BMP180;55421;51.600;5.718;2023-11-19T02:51:05;165362.00;;;11.90
68440;BMP180;55421;51.600;5.718;2023-11-19T02:53:36;165362.00;;;11.90
68440;BMP180;55421;51.600;5.718;2023-11-19T02:56:06;165363.20;;;11.90
68440;BMP180;55421;51.600;5.718;2023-11-19T02:58:46;165362.00;;;11.90
68440;BMP180;55421;51.600;5.718;2023-11-19T03:01:13;165365.59;;;11.90
68440;BMP180;55421;51.600;5.718;2023-11-19T03:03:50;165365.59;;;11.90
68440;BMP180;55421;51.600;5.718;2023-11-19T03:06:27;165357.20;;;11.90
68440;BMP180;55421;51.600;5.718;2023-11-19T03:08:55;165345.59;;;11.82
68440;BMP180;55421;51.600;5.718;2023-11-19T03:11:22;165334.00;;;11.80
68440;BMP180;55421;51.600;5.718;2023-11-19T03:13:48;165322.00;;;11.80
68440;BMP180;55421;51.600;5.718;2023-11-19T03:16:15;165306.41;;;11.80
68440;BMP180;55421;51.600;5.718;2023-11-19T03:18:43;165290.41;;;11.70
68440;BMP180;55421;51.600;5.718;2023-11-19T03:21:09;165264.00;;;11.70
68440;BMP180;55421;51.600;5.718;2023-11-19T03:23:36;165244.20;;;11.60
68440;BMP180;55421;51.600;5.718;2023-11-19T03:26:03;165216.59;;;11.50
68440;BMP180;55421;51.600;5.718;2023-11-19T03:28:32;165189.80;;;11.50
68440;BMP180;55421;51.600;5.718;2023-11-19T03:30:58;165168.20;;;11.40
68440;BMP180;55421;51.600;5.718;2023-11-19T03:33:25;165144.41;;;11.40
68440;BMP180;55421;51.600;5.718;2023-11-19T03:35:56;165123.59;;;11.30
68440;BMP180;55421;51.600;5.718;2023-11-19T03:38:24;165104.41;;;11.30
68440;BMP180;55421;51.600;5.718;2023-11-19T03:40:51;165084.80;;;11.22
68440;BMP180;55421;51.600;5.718;2023-11-19T03:43:17;165072.00;;;11.20
68440;BMP180;55421;51.600;5.718;2023-11-19T03:45:45;165051.59;;;11.20
68440;BMP180;55421;51.600;5.718;2023-11-19T03:48:13;165040.00;;;11.10
68440;BMP180;55421;51.600;5.718;2023-11-19T03:50:43;165027.20;;;11.10
68440;BMP180;55421;51.600;5.718;2023-11-19T03:53:09;165017.59;;;11.10
68440;BMP180;55421;51.600;5.718;2023-11-19T03:55:36;165009.80;;;11.10
68440;BMP180;55421;51.600;5.718;2023-11-19T03:58:02;165003.80;;;11.10
68440;BMP180;55421;51.600;5.718;2023-11-19T04:00:28;164996.59;;;11.02
68440;BMP180;55421;51.600;5.718;2023-11-19T04:02:55;164994.59;;;11.00
68440;BMP180;55421;51.600;5.718;2023-11-19T04:05:22;164991.00;;;11.00
68440;BMP180;55421;51.600;5.718;2023-11-19T04:07:48;164984.20;;;11.00
68440;BMP180;55421;51.600;5.718;2023-11-19T04:10:15;164974.59;;;11.00
68440;BMP180;55421;51.600;5.718;2023-11-19T04:12:43;164968.20;;;11.00
68440;BMP180;55421;51.600;5.718;2023-11-19T04:15:11;164957.00;;;10.96
68440;BMP180;55421;51.600;5.718;2023-11-19T04:17:38;164956.20;;;10.92
68440;BMP180;55421;51.600;5.718;2023-11-19T04:20:05;164947.80;;;10.90
68440;BMP180;55421;51.600;5.718;2023-11-19T04:22:32;164941.80;;;10.90
68440;BMP180;55421;51.600;5.718;2023-11-19T04:24:58;164934.20;;;10.90
68440;BMP180;55421;51.600;5.718;2023-11-19T04:27:25;164924.20;;;10.90
68440;BMP180;55421;51.600;5.718;2023-11-19T04:29:51;164929.41;;;10.90
68440;BMP180;55421;51.600;5.718;2023-11-19T04:32:18;164917.41;;;10.90
68440;BMP180;55421;51.600;5.718;2023-11-19T04:34:45;164911.41;;;10.82
68440;BMP180;55421;51.600;5.718;2023-11-19T04:37:12;164901.00;;;10.80
68440;BMP180;55421;51.600;5.718;2023-11-19T04:39:38;164895.80;;;10.80
68440;BMP180;55421;51.600;5.718;2023-11-19T04:42:05;164894.59;;;10.80
68440;BMP180;55421;51.600;5.718;2023-11-19T04:44:32;164903.41;;;10.80
68440;BMP180;55421;51.600;5.718;2023-11-19T04:46:59;164902.59;;;10.80
68440;BMP180;55421;51.600;5.718;2023-11-19T04:49:25;164910.20;;;10.80
68440;BMP180;55421;51.600;5.718;2023-11-19T04:51:53;164915.00;;;10.86
68440;BMP180;55421;51.600;5.718;2023-11-19T04:54:20;164916.20;;;10.84
68440;BMP180;55421;51.600;5.718;2023-11-19T04:56:46;164910.20;;;10.80
68440;BMP180;55421;51.600;5.718;2023-11-19T04:59:13;164909.41;;;10.80
68440;BMP180;55421;51.600;5.718;2023-11-19T05:01:40;164901.00;;;10.80
68440;BMP180;55421;51.600;5.718;2023-11-19T05:04:07;164896.20;;;10.80
68440;BMP180;55421;51.600;5.718;2023-11-19T05:06:34;164889.80;;;10.80
68440;BMP180;55421;51.600;5.718;2023-11-19T05:09:02;164884.80;;;10.80
68440;BMP180;55421;51.600;5.718;2023-11-19T05:11:31;164876.59;;;10.80
68440;BMP180;55421;51.600;5.718;2023-11-19T05:13:58;164868.00;;;10.78
68440;BMP180;55421;51.600;5.718;2023-11-19T05:16:24;164870.20;;;10.76
68440;BMP180;55421;51.600;5.718;2023-11-19T05:18:51;164870.00;;;10.76
68440;BMP180;55421;51.600;5.718;2023-11-19T05:21:18;164863.20;;;10.70
68440;BMP180;55421;51.600;5.718;2023-11-19T05:23:44;164864.41;;;10.70
68440;BMP180;55421;51.600;5.718;2023-11-19T05:26:21;164855.20;;;10.70
68440;BMP180;55421;51.600;5.718;2023-11-19T05:28:48;164856.41;;;10.70
68440;BMP180;55421;51.600;5.718;2023-11-19T05:31:16;164851.20;;;10.70
68440;BMP180;55421;51.600;5.718;2023-11-19T05:33:43;164840.00;;;10.70
68440;BMP180;55421;51.600;5.718;2023-11-19T05:36:12;164841.59;;;10.70
68440;BMP180;55421;51.600;5.718;2023-11-19T05:38:39;164835.20;;;10.68
68440;BMP180;55421;51.600;5.718;2023-11-19T05:41:06;164829.20;;;10.60
68440;BMP180;55421;51.600;5.718;2023-11-19T05:43:33;164824.80;;;10.60
68440;BMP180;55421;51.600;5.718;2023-11-19T05:45:59;164822.41;;;10.60
68440;BMP180;55421;51.600;5.718;2023-11-19T05:48:27;164816.00;;;10.60
68440;BMP180;55421;51.600;5.718;2023-11-19T05:50:54;164808.41;;;10.60
68440;BMP180;55421;51.600;5.718;2023-11-19T05:53:21;164808.80;;;10.60
68440;BMP180;55421;51.600;5.718;2023-11-19T05:55:47;164816.80;;;10.60
68440;BMP180;55421;51.600;5.718;2023-11-19T05:58:27;164822.41;;;10.60
68440;BMP180;55421;51.600;5.718;2023-11-19T06:00:56;164819.20;;;10.60
68440;BMP180;55421;51.600;5.718;2023-11-19T06:03:23;164813.20;;;10.60
68440;BMP180;55421;51.600;5.718;2023-11-19T06:05:50;164810.80;;;10.60
68440;BMP180;55421;51.600;5.718;2023-11-19T06:08:16;164813.20;;;10.60
68440;BMP180;55421;51.600;5.718;2023-11-19T06:10:44;164813.59;;;10.60
68440;BMP180;55421;51.600;5.718;2023-11-19T06:13:13;164806.00;;;10.60
68440;BMP180;55421;51.600;5.718;2023-11-19T06:15:42;164798.00;;;10.60
68440;BMP180;55421;51.600;5.718;2023-11-19T06:18:09;164787.20;;;10.54
68440;BMP180;55421;51.600;5.718;2023-11-19T06:20:38;164778.41;;;10.50
68440;BMP180;55421;51.600;5.718;2023-11-19T06:23:04;164764.20;;;10.50
68440;BMP180;55421;51.600;5.718;2023-11-19T06:25:31;164752.80;;;10.50
68440;BMP180;55421;51.600;5.718;2023-11-19T06:27:58;164747.41;;;10.48
68440;BMP180;55421;51.600;5.718;2023-11-19T06:30:25;164742.59;;;10.42
68440;BMP180;55421;51.600;5.718;2023-11-19T06:32:51;164735.80;;;10.40
68440;BMP180;55421;51.600;5.718;2023-11-19T06:35:18;164725.00;;;10.40
68440;BMP180;55421;51.600;5.718;2023-11-19T06:37:44;164721.41;;;10.40
68440;BMP180;55421;51.600;5.718;2023-11-19T06:40:11;164715.00;;;10.40
68440;BMP180;55421;51.600;5.718;2023-11-19T06:42:38;164708.59;;;10.40
68440;BMP180;55421;51.600;5.718;2023-11-19T06:45:06;164704.59;;;10.38
68440;BMP180;55421;51.600;5.718;2023-11-19T06:47:33;164701.41;;;10.38
68440;BMP180;55421;51.600;5.718;2023-11-19T06:50:01;164698.20;;;10.38
68440;BMP180;55421;51.600;5.718;2023-11-19T06:52:30;164691.80;;;10.30
68440;BMP180;55421;51.600;5.718;2023-11-19T06:54:57;164687.41;;;10.30
68440;BMP180;55421;51.600;5.718;2023-11-19T06:57:23;164677.80;;;10.30
68440;BMP180;55421;51.600;5.718;2023-11-19T06:59:50;164676.59;;;10.30
68440;BMP180;55421;51.600;5.718;2023-11-19T07:02:17;164677.80;;;10.30
68440;BMP180;55421;51.600;5.718;2023-11-19T07:04:43;164677.80;;;10.30
68440;BMP180;55421;51.600;5.718;2023-11-19T07:07:09;164676.59;;;10.30
68440;BMP180;55421;51.600;5.718;2023-11-19T07:09:36;164671.80;;;10.30
68440;BMP180;55421;51.600;5.718;2023-11-19T07:12:04;164665.80;;;10.30
68440;BMP180;55421;51.600;5.718;2023-11-19T07:14:31;164662.59;;;10.30
68440;BMP180;55421;51.600;5.718;2023-11-19T07:16:57;164658.59;;;10.28
68440;BMP180;55421;51.600;5.718;2023-11-19T07:19:24;164656.59;;;10.24
68440;BMP180;55421;51.600;5.718;2023-11-19T07:21:50;164655.80;;;10.22
68440;BMP180;55421;51.600;5.718;2023-11-19T07:24:16;164655.80;;;10.26
68440;BMP180;55421;51.600;5.718;2023-11-19T07:26:45;164665.80;;;10.30
68440;BMP180;55421;51.600;5.718;2023-11-19T07:29:11;164668.59;;;10.30
68440;BMP180;55421;51.600;5.718;2023-11-19T07:31:38;164670.59;;;10.30
68440;BMP180;55421;51.600;5.718;2023-11-19T07:34:05;164674.59;;;10.30
68440;BMP180;55421;51.600;5.718;2023-11-19T07:36:32;164681.41;;;10.30
68440;BMP180;55421;51.600;5.718;2023-11-19T07:38:59;164693.00;;;10.30
68440;BMP180;55421;51.600;5.718;2023-11-19T07:41:25;164700.20;;;10.38
68440;BMP180;55421;51.600;5.718;2023-11-19T07:43:52;164709.80;;;10.40
68440;BMP180;55421;51.600;5.718;2023-11-19T07:46:19;164712.59;;;10.40
68440;BMP180;55421;51.600;5.718;2023-11-19T07:48:46;164715.00;;;10.40
68440;BMP180;55421;51.600;5.718;2023-11-19T07:51:18;164725.00;;;10.40
68440;BMP180;55421;51.600;5.718;2023-11-19T07:53:45;164731.00;;;10.40
68440;BMP180;55421;51.600;5.718;2023-11-19T07:56:11;164734.20;;;10.40
68440;BMP180;55421;51.600;5.718;2023-11-19T07:58:38;164739.41;;;10.40
68440;BMP180;55421;51.600;5.718;2023-11-19T08:01:05;164744.59;;;10.48
68440;BMP180;55421;51.600;5.718;2023-11-19T08:03:31;164751.80;;;10.48
68440;BMP180;55421;51.600;5.718;2023-11-19T08:06:01;164755.41;;;10.50
68440;BMP180;55421;51.600;5.718;2023-11-19T08:08:28;164768.41;;;10.50
68440;BMP180;55421;51.600;5.718;2023-11-19T08:11:00;164781.20;;;10.50
68440;BMP180;55421;51.600;5.718;2023-11-19T08:13:26;164795.59;;;10.60
68440;BMP180;55421;51.600;5.718;2023-11-19T08:15:53;164814.00;;;10.60
68440;BMP180;55421;51.600;5.718;2023-11-19T08:18:19;164837.59;;;10.70
68440;BMP180;55421;51.600;5.718;2023-11-19T08:20:46;164861.20;;;10.70
68440;BMP180;55421;51.600;5.718;2023-11-19T08:23:16;164882.59;;;10.80
68440;BMP180;55421;51.600;5.718;2023-11-19T08:25:42;164901.00;;;10.80
68440;BMP180;55421;51.600;5.718;2023-11-19T08:28:10;164928.20;;;10.90
68440;BMP180;55421;51.600;5.718;2023-11-19T08:30:36;164950.20;;;10.90
68440;BMP180;55421;51.600;5.718;2023-11-19T08:33:03;164975.41;;;11.00
68440;BMP180;55421;51.600;5.718;2023-11-19T08:35:29;164994.59;;;11.00
68440;BMP180;55421;51.600;5.718;2023-11-19T08:37:56;165008.80;;;11.10
68440;BMP180;55421;51.600;5.718;2023-11-19T08:40:23;165020.80;;;11.10
68440;BMP180;55421;51.600;5.718;2023-11-19T08:42:49;165035.20;;;11.10
68440;BMP180;55421;51.600;5.718;2023-11-19T08:45:16;165061.59;;;11.20
68440;BMP180;55421;51.600;5.718;2023-11-19T08:47:43;165077.20;;;11.20
68440;BMP180;55421;51.600;5.718;2023-11-19T08:50:11;165098.41;;;11.30
68440;BMP180;55421;51.600;5.718;2023-11-19T08:52:38;165117.59;;;11.30
68440;BMP180;55421;51.600;5.718;2023-11-19T08:55:05;165141.41;;;11.40
68440;BMP180;55421;51.600;5.718;2023-11-19T08:57:32;165158.20;;;11.40
68440;BMP180;55421;51.600;5.718;2023-11-19T09:00:02;165172.20;;;11.40
68440;BMP180;55421;51.600;5.718;2023-11-19T09:02:36;165180.20;;;11.50
68440;BMP180;55421;51.600;5.718;2023-11-19T09:05:05;165193.00;;;11.50
68440;BMP180;55421;51.600;5.718;2023-11-19T09:07:33;165206.59;;;11.50
68440;BMP180;55421;51.600;5.718;2023-11-19T09:10:00;165237.00;;;11.60
68440;BMP180;55421;51.600;5.718;2023-11-19T09:12:26;165258.00;;;11.62
68440;BMP180;55421;51.600;5.718;2023-11-19T09:14:53;165280.80;;;11.70
68440;BMP180;55421;51.600;5.718;2023-11-19T09:17:20;165314.00;;;11.80
68440;BMP180;55421;51.600;5.718;2023-11-19T09:19:46;165348.00;;;11.84
68440;BMP180;55421;51.600;5.718;2023-11-19T09:22:13;165371.59;;;11.90
68440;BMP180;55421;51.600;5.718;2023-11-19T09:24:40;165397.80;;;12.00
68440;BMP180;55421;51.600;5.718;2023-11-19T09:27:07;165415.41;;;12.00
68440;BMP180;55421;51.600;5.718;2023-11-19T09:29:34;165427.41;;;12.00
68440;BMP180;55421;51.600;5.718;2023-11-19T09:32:00;165427.80;;;12.00
68440;BMP180;55421;51.600;5.718;2023-11-19T09:34:27;165421.00;;;12.00
68440;BMP180;55421;51.600;5.718;2023-11-19T09:36:54;165411.80;;;12.00
68440;BMP180;55421;51.600;5.718;2023-11-19T09:39:20;165416.59;;;12.00
68440;BMP180;55421;51.600;5.718;2023-11-19T09:41:47;165418.20;;;12.00
68440;BMP180;55421;51.600;5.718;2023-11-19T09:44:14;165429.80;;;12.00
68440;BMP180;55421;51.600;5.718;2023-11-19T09:46:44;165457.00;;;12.10
68440;BMP180;55421;51.600;5.718;2023-11-19T09:49:12;165467.80;;;12.10
68440;BMP180;55421;51.600;5.718;2023-11-19T09:51:39;165506.00;;;12.20
68440;BMP180;55421;51.600;5.718;2023-11-19T09:54:06;165542.00;;;12.30
68440;BMP180;55421;51.600;5.718;2023-11-19T09:56:36;165560.00;;;12.36
68440;BMP180;55421;51.600;5.718;2023-11-19T09:59:04;165579.59;;;12.40
68440;BMP180;55421;51.600;5.718;2023-11-19T10:01:31;165598.80;;;12.40
68440;BMP180;55421;51.600;5.718;2023-11-19T10:03:58;165634.00;;;12.50
68440;BMP180;55421;51.600;5.718;2023-11-19T10:06:25;165668.59;;;12.60
68440;BMP180;55421;51.600;5.718;2023-11-19T10:08:53;165678.20;;;12.60
68440;BMP180;55421;51.600;5.718;2023-11-19T10:11:19;165685.41;;;12.60
68440;BMP180;55421;51.600;5.718;2023-11-19T10:13:46;165695.00;;;12.66
68440;BMP180;55421;51.600;5.718;2023-11-19T10:16:15;165695.00;;;12.62
68440;BMP180;55421;51.600;5.718;2023-11-19T10:18:49;165692.59;;;12.60
68440;BMP180;55421;51.600;5.718;2023-11-19T10:21:19;165710.20;;;12.70
68440;BMP180;55421;51.600;5.718;2023-11-19T10:23:56;165713.80;;;12.70
68440;BMP180;55421;51.600;5.718;2023-11-19T10:26:27;165723.80;;;12.70
68440;BMP180;55421;51.600;5.718;2023-11-19T10:28:55;165719.41;;;12.70
68440;BMP180;55421;51.600;5.718;2023-11-19T10:31:22;165727.80;;;12.70
68440;BMP180;55421;51.600;5.718;2023-11-19T10:33:52;165723.80;;;12.70
68440;BMP180;55421;51.600;5.718;2023-11-19T10:36:19;165720.59;;;12.70
68440;BMP180;55421;51.600;5.718;2023-11-19T10:38:56;165741.00;;;12.78
68440;BMP180;55421;51.600;5.718;2023-11-19T10:41:31;165759.20;;;12.80
68440;BMP180;55421;51.600;5.718;2023-11-19T10:44:01;165775.20;;;12.80
68440;BMP180;55421;51.600;5.718;2023-11-19T10:46:38;165771.59;;;12.80
68440;BMP180;55421;51.600;5.718;2023-11-19T10:49:09;165772.80;;;12.82
68440;BMP180;55421;51.600;5.718;2023-11-19T10:51:44;165780.00;;;12.88
68440;BMP180;55421;51.600;5.718;2023-11-19T10:54:18;165770.41;;;12.80
68440;BMP180;55421;51.600;5.718;2023-11-19T10:56:54;165774.00;;;12.80
68440;BMP180;55421;51.600;5.718;2023-11-19T10:59:21;165812.80;;;12.90
68440;BMP180;55421;51.600;5.718;2023-11-19T11:01:53;165836.80;;;13.00
68440;BMP180;55421;51.600;5.718;2023-11-19T11:04:25;165852.41;;;13.00
68440;BMP180;55421;51.600;5.718;2023-11-19T11:06:55;165878.00;;;13.10
68440;BMP180;55421;51.600;5.718;2023-11-19T11:09:27;165895.59;;;13.10
68440;BMP180;55421;51.600;5.718;2023-11-19T11:11:54;165898.00;;;13.10
68440;BMP180;55421;51.600;5.718;2023-11-19T11:14:24;165898.00;;;13.10
68440;BMP180;55421;51.600;5.718;2023-11-19T11:16:53;165894.59;;;13.10
68440;BMP180;55421;51.600;5.718;2023-11-19T11:19:20;165888.80;;;13.10
68440;BMP180;55421;51.600;5.718;2023-11-19T11:21:53;165897.00;;;13.10
68440;BMP180;55421;51.600;5.718;2023-11-19T11:24:50;165882.80;;;13.10
68440;BMP180;55421;51.600;5.718;2023-11-19T11:33:37;165879.20;;;13.10
68440;BMP180;55421;51.600;5.718;2023-11-19T11:36:20;165852.80;;;13.00
68440;BMP180;55421;51.600;5.718;2023-11-19T11:38:49;165829.59;;;13.00
68440;BMP180;55421;51.600;5.718;2023-11-19T11:41:24;165808.41;;;12.90
68440;BMP180;55421;51.600;5.718;2023-11-19T11:43:55;165788.00;;;12.90
68440;BMP180;55421;51.600;5.718;2023-11-19T11:49:03;165763.41;;;12.80
68440;BMP180;55421;51.600;5.718;2023-11-19T11:54:26;165742.20;;;12.80
68440;BMP180;55421;51.600;5.718;2023-11-19T11:57:03;165743.41;;;12.80
68440;BMP180;55421;51.600;5.718;2023-11-19T12:02:10;165719.00;;;12.70
68440;BMP180;55421;51.600;5.718;2023-11-19T12:04:36;165707.80;;;12.70
68440;BMP180;55421;51.600;5.718;2023-11-19T12:07:08;165705.00;;;12.70
68440;BMP180;55421;51.600;5.718;2023-11-19T12:09:45;165707.80;;;12.70
68440;BMP180;55421;51.600;5.718;2023-11-19T12:12:22;165711.41;;;12.70
68440;BMP180;55421;51.600;5.718;2023-11-19T12:20:07;165796.41;;;12.90
68440;BMP180;55421;51.600;5.718;2023-11-19T12:22:38;165824.80;;;12.96
68440;BMP180;55421;51.600;5.718;2023-11-19T12:25:06;165824.80;;;12.98
68440;BMP180;55421;51.600;5.718;2023-11-19T12:27:33;165829.59;;;13.00
68440;BMP180;55421;51.600;5.718;2023-11-19T12:30:03;165847.59;;;13.00
68440;BMP180;55421;51.600;5.718;2023-11-19T12:32:45;165849.20;;;13.00
68440;BMP180;55421;51.600;5.718;2023-11-19T12:35:12;165854.41;;;13.00
68440;BMP180;55421;51.600;5.718;2023-11-19T12:37:44;165873.59;;;13.10
68440;BMP180;55421;51.600;5.718;2023-11-19T12:40:19;165916.20;;;13.20
68440;BMP180;55421;51.600;5.718;2023-11-19T12:42:47;165969.80;;;13.30
68440;BMP180;55421;51.600;5.718;2023-11-19T12:45:15;165981.41;;;13.30
68440;BMP180;55421;51.600;5.718;2023-11-19T12:47:43;165980.20;;;13.30
68440;BMP180;55421;51.600;5.718;2023-11-19T12:50:10;165975.41;;;13.30
68440;BMP180;55421;51.600;5.718;2023-11-19T12:52:37;165975.41;;;13.30
68440;BMP180;55421;51.600;5.718;2023-11-19T12:55:25;165981.41;;;13.30
68440;BMP180;55421;51.600;5.718;2023-11-19T12:57:55;165964.59;;;13.30
68440;BMP180;55421;51.600;5.718;2023-11-19T13:00:25;165959.00;;;13.24
68440;BMP180;55421;51.600;5.718;2023-11-19T13:02:55;165969.80;;;13.30
68440;BMP180;55421;51.600;5.718;2023-11-19T13:05:31;165991.00;;;13.30
68440;BMP180;55421;51.600;5.718;2023-11-19T13:08:07;166012.00;;;13.40
68440;BMP180;55421;51.600;5.718;2023-11-19T13:13:16;165983.41;;;13.30
68440;BMP180;55421;51.600;5.718;2023-11-19T13:15:43;165945.41;;;13.20
68440;BMP180;55421;51.600;5.718;2023-11-19T13:18:12;165904.20;;;13.10
68440;BMP180;55421;51.600;5.718;2023-11-19T13:20:38;165872.80;;;13.10
68440;BMP180;55421;51.600;5.718;2023-11-19T13:23:06;165836.80;;;13.00
68440;BMP180;55421;51.600;5.718;2023-11-19T13:25:36;165800.00;;;12.90
68440;BMP180;55421;51.600;5.718;2023-11-19T13:28:03;165771.59;;;12.80
68440;BMP180;55421;51.600;5.718;2023-11-19T13:30:30;165741.00;;;12.76
68440;BMP180;55421;51.600;5.718;2023-11-19T13:32:56;165706.20;;;12.70
68440;BMP180;55421;51.600;5.718;2023-11-19T13:35:23;165679.41;;;12.60
68440;BMP180;55421;51.600;5.718;2023-11-19T13:37:49;165652.59;;;12.56
68440;BMP180;55421;51.600;5.718;2023-11-19T13:40:16;165653.80;;;12.58
68440;BMP180;55421;51.600;5.718;2023-11-19T13:42:43;165668.59;;;12.60
68440;BMP180;55421;51.600;5.718;2023-11-19T13:45:11;165699.41;;;12.70
68440;BMP180;55421;51.600;5.718;2023-11-19T13:47:41;165711.00;;;12.70
68440;BMP180;55421;51.600;5.718;2023-11-19T13:50:10;165729.00;;;12.70
68440;BMP180;55421;51.600;5.718;2023-11-19T13:52:39;165760.00;;;12.80
68440;BMP180;55421;51.600;5.718;2023-11-19T13:55:08;165794.00;;;12.90
68440;BMP180;55421;51.600;5.718;2023-11-19T13:57:36;165804.41;;;12.90
68440;BMP180;55421;51.600;5.718;2023-11-19T14:00:06;165806.00;;;12.90
68440;BMP180;55421;51.600;5.718;2023-11-19T14:02:34;165800.80;;;12.90
68440;BMP180;55421;51.600;5.718;2023-11-19T14:05:00;165787.20;;;12.90
68440;BMP180;55421;51.600;5.718;2023-11-19T14:07:27;165766.80;;;12.80
68440;BMP180;55421;51.600;5.718;2023-11-19T14:09:54;165742.20;;;12.80
68440;BMP180;55421;51.600;5.718;2023-11-19T14:12:20;165725.00;;;12.70
68440;BMP180;55421;51.600;5.718;2023-11-19T14:14:47;165719.80;;;12.70
68440;BMP180;55421;51.600;5.718;2023-11-19T14:17:14;165710.59;;;12.70
68440;BMP180;55421;51.600;5.718;2023-11-19T14:19:43;165685.41;;;12.60
68440;BMP180;55421;51.600;5.718;2023-11-19T14:22:10;165668.59;;;12.60
68440;BMP180;55421;51.600;5.718;2023-11-19T14:24:38;165655.80;;;12.58